createdAt,value
2023-03-23T15:58:42.415Z,20.54
2023-03-23T16:01:18.940Z,20.52
2023-03-23T16:04:11.114Z,20.50
2023-03-23T16:06:38.539Z,20.49
2023-03-23T16:09:06.622Z,20.50
2023-03-23T16:11:33.995Z,20.49
2023-03-23T16:14:01.833Z,20.49
2023-03-23T16:16:34.490Z,20.47
2023-03-23T16:19:01.267Z,20.43
2023-03-23T16:21:28.183Z,20.39
2023-03-23T16:23:56.128Z,20.32
2023-03-23T16:26:22.994Z,20.27
2023-03-23T16:28:50.518Z,20.22
2023-03-23T16:31:17.319Z,20.16
2023-03-23T16:33:43.978Z,20.10
2023-03-23T16:36:13.195Z,20.03
2023-03-23T16:38:49.334Z,19.97
2023-03-23T16:41:18.341Z,19.91
2023-03-23T16:43:45.456Z,19.86
2023-03-23T16:46:14.200Z,19.80
2023-03-23T16:48:41.077Z,19.75
2023-03-23T16:51:07.888Z,19.69
2023-03-23T16:53:34.642Z,19.63
2023-03-23T16:56:01.330Z,19.57
2023-03-23T16:58:28.402Z,19.51
2023-03-23T17:00:55.071Z,19.45
2023-03-23T17:03:22.409Z,19.39
2023-03-23T17:05:51.693Z,19.33
2023-03-23T17:08:20.220Z,19.27
2023-03-23T17:10:48.023Z,19.22
2023-03-23T17:13:14.712Z,19.16
2023-03-23T17:15:45.311Z,19.10
2023-03-23T17:18:14.470Z,19.04
2023-03-23T17:20:41.268Z,18.98
2023-03-23T17:23:08.317Z,18.93
2023-03-23T17:25:34.998Z,18.87
2023-03-23T17:28:05.873Z,18.82
2023-03-23T17:30:33.443Z,18.76
2023-03-23T17:33:00.352Z,18.71
2023-03-23T17:35:27.181Z,18.64
2023-03-23T17:37:53.957Z,18.58
2023-03-23T17:40:21.082Z,18.51
2023-03-23T17:42:47.802Z,18.43
2023-03-23T17:45:14.597Z,18.35
2023-03-23T17:47:41.314Z,18.27
2023-03-23T17:50:12.239Z,18.21
2023-03-23T17:52:40.566Z,18.12
2023-03-23T17:55:07.892Z,18.03
2023-03-23T17:57:35.287Z,17.93
2023-03-23T18:00:02.980Z,17.85
2023-03-23T18:02:33.845Z,17.76
2023-03-23T18:05:00.700Z,17.67
2023-03-23T18:07:27.373Z,17.59
2023-03-23T18:10:00.931Z,17.52
2023-03-23T18:12:28.015Z,17.43
2023-03-23T18:14:58.557Z,17.32
2023-03-23T18:17:26.528Z,17.21
2023-03-23T18:19:54.741Z,17.13
2023-03-23T18:22:22.143Z,17.05
2023-03-23T18:24:49.234Z,16.97
2023-03-23T18:27:16.241Z,16.90
2023-03-23T18:29:43.016Z,16.84
2023-03-23T18:32:09.792Z,16.78
2023-03-23T18:34:37.991Z,16.73
2023-03-23T18:37:04.703Z,16.68
2023-03-23T18:39:34.008Z,16.64
2023-03-23T18:42:01.314Z,16.59
2023-03-23T18:44:27.979Z,16.56
2023-03-23T18:46:54.726Z,16.53
2023-03-23T18:49:21.410Z,16.49
2023-03-23T18:51:48.443Z,16.46
2023-03-23T18:54:15.124Z,16.43
2023-03-23T18:56:41.891Z,16.40
2023-03-23T18:59:09.616Z,16.39
2023-03-23T19:01:36.515Z,16.35
2023-03-23T19:04:06.375Z,16.29
2023-03-23T19:06:34.986Z,16.22
2023-03-23T19:09:02.249Z,16.17
2023-03-23T19:11:29.075Z,16.14
2023-03-23T19:14:02.408Z,16.12
2023-03-23T19:16:36.046Z,16.10
2023-03-23T19:19:05.102Z,16.08
2023-03-23T19:21:32.727Z,16.04
2023-03-23T19:24:01.249Z,16.01
2023-03-23T19:26:36.909Z,15.98
2023-03-23T19:29:26.254Z,15.97
2023-03-23T19:31:58.557Z,15.95
2023-03-23T19:34:27.533Z,15.93
2023-03-23T19:37:03.246Z,15.92
2023-03-23T19:39:32.851Z,15.89
2023-03-23T19:41:59.876Z,15.85
2023-03-23T19:44:26.546Z,15.83
2023-03-23T19:46:54.486Z,15.81
2023-03-23T19:49:21.534Z,15.79
2023-03-23T19:51:50.288Z,15.79
2023-03-23T19:54:17.081Z,15.78
2023-03-23T19:56:43.904Z,15.72
2023-03-23T19:59:15.011Z,15.72
2023-03-23T20:01:43.062Z,15.70
2023-03-23T20:04:11.105Z,15.69
2023-03-23T20:06:38.230Z,15.67
2023-03-23T20:09:06.543Z,15.63
2023-03-23T20:11:34.549Z,15.58
2023-03-23T20:14:01.484Z,15.57
2023-03-23T20:16:29.015Z,15.57
2023-03-23T20:18:59.662Z,15.57
2023-03-23T20:21:27.437Z,15.59
2023-03-23T20:23:57.125Z,15.60
2023-03-23T20:26:44.519Z,15.62
2023-03-23T20:29:12.868Z,15.63
2023-03-23T20:31:41.617Z,15.60
2023-03-23T20:34:11.706Z,15.57
2023-03-23T20:36:45.335Z,15.57
2023-03-23T20:39:15.454Z,15.56
2023-03-23T20:41:43.788Z,15.55
2023-03-23T20:44:14.278Z,15.55
2023-03-23T20:46:47.657Z,15.54
2023-03-23T20:49:15.928Z,15.53
2023-03-23T20:51:43.812Z,15.51
2023-03-23T20:54:11.213Z,15.48
2023-03-23T20:56:40.560Z,15.45
2023-03-23T20:59:07.484Z,15.43
2023-03-23T21:01:35.097Z,15.45
2023-03-23T21:04:03.175Z,15.44
2023-03-23T21:06:31.160Z,15.41
2023-03-23T21:08:58.264Z,15.39
2023-03-23T21:11:26.860Z,15.35
2023-03-23T21:13:53.837Z,15.33
2023-03-23T21:16:21.324Z,15.33
2023-03-23T21:18:48.158Z,15.33
2023-03-23T21:21:18.356Z,15.30
2023-03-23T21:23:47.135Z,15.27
2023-03-23T21:26:17.269Z,15.26
2023-03-23T21:28:45.651Z,15.26
2023-03-23T21:31:15.101Z,15.28
2023-03-23T21:33:41.894Z,15.25
2023-03-23T21:36:09.780Z,15.26
2023-03-23T21:38:38.336Z,15.24
2023-03-23T21:41:13.986Z,15.22
2023-03-23T21:43:41.226Z,15.20
2023-03-23T21:46:09.517Z,15.17
2023-03-23T21:48:41.620Z,15.13
2023-03-23T21:51:11.840Z,15.11
2023-03-23T21:53:38.958Z,15.08
2023-03-23T21:56:07.528Z,15.07
2023-03-23T21:58:34.291Z,15.05
2023-03-23T22:01:02.254Z,15.04
2023-03-23T22:03:33.208Z,15.02
2023-03-23T22:06:09.716Z,14.97
2023-03-23T22:08:37.803Z,14.92
2023-03-23T22:11:07.943Z,14.89
2023-03-23T22:13:37.409Z,14.86
2023-03-23T22:16:07.703Z,14.82
2023-03-23T22:18:37.970Z,14.78
2023-03-23T22:21:07.038Z,14.74
2023-03-23T22:23:35.183Z,14.71
2023-03-23T22:26:02.182Z,14.69
2023-03-23T22:28:31.003Z,14.67
2023-03-23T22:31:07.701Z,14.66
2023-03-23T22:33:36.016Z,14.65
2023-03-23T22:36:06.287Z,14.64
2023-03-23T22:38:34.768Z,14.62
2023-03-23T22:41:02.748Z,14.59
2023-03-23T22:43:29.470Z,14.58
2023-03-23T22:45:56.610Z,14.56
2023-03-23T22:48:25.328Z,14.54
2023-03-23T22:50:52.883Z,14.52
2023-03-23T22:53:21.622Z,14.51
2023-03-23T22:55:53.171Z,14.50
2023-03-23T22:58:19.966Z,14.52
2023-03-23T23:00:55.895Z,14.52
2023-03-23T23:03:23.667Z,14.54
2023-03-23T23:05:52.198Z,14.56
2023-03-23T23:08:20.465Z,14.57
2023-03-23T23:10:49.687Z,14.58
2023-03-23T23:13:17.022Z,14.57
2023-03-23T23:15:47.400Z,14.54
2023-03-23T23:18:14.565Z,14.50
2023-03-23T23:20:42.271Z,14.48
2023-03-23T23:23:10.005Z,14.46
2023-03-23T23:25:37.442Z,14.44
2023-03-23T23:28:06.094Z,14.42
2023-03-23T23:30:33.857Z,14.40
2023-03-23T23:33:01.155Z,14.38
2023-03-23T23:35:28.008Z,14.38
2023-03-23T23:37:54.846Z,14.37
2023-03-23T23:40:21.556Z,14.35
2023-03-23T23:42:50.954Z,14.33
2023-03-23T23:45:19.075Z,14.32
2023-03-23T23:47:46.545Z,14.31
2023-03-23T23:50:14.423Z,14.30
2023-03-23T23:52:42.745Z,14.29
2023-03-23T23:55:11.527Z,14.28
2023-03-23T23:57:38.744Z,14.26
